Time;durP1;ratioP1;P1;durP2;ratioP2;P2;SDS_P1;SDS_P2;PMS_P1;PMS_P2;Temp;Humidity;BMP_temperature;BMP_pressure;BME280_temperature;BME280_humidity;BME280_pressure;Samples;Min_cycle;Max_cycle;Signal;HPM_P1;HPM_P2
2021/09/30 00:01:00;;;;;;;18.17;7.90;;;12.50;99.90;;;;;;5024617;28;20549;-67
2021/09/30 00:03:27;;;;;;;20.73;8.17;;;12.50;99.90;;;;;;5021877;28;20261;-67
2021/09/30 00:05:54;;;;;;;14.90;8.10;;;12.50;99.90;;;;;;5032751;28;20230;-68
2021/09/30 00:08:20;;;;;;;11.43;8.00;;;12.50;99.90;;;;;;5033169;28;20632;-67
2021/09/30 00:10:55;;;;;;;15.67;8.97;;;12.40;99.90;;;;;;5023824;28;20217;-67
2021/09/30 00:13:37;;;;;;;18.60;8.63;;;12.50;99.90;;;;;;5028916;28;20583;-67
2021/09/30 00:16:26;;;;;;;17.33;8.23;;;12.50;99.90;;;;;;5028393;28;20216;-67
2021/09/30 00:32:45;;;;;;;16.60;9.17;;;12.40;99.90;;;;;;5032168;28;20210;-67
2021/09/30 00:35:25;;;;;;;16.20;8.30;;;12.40;99.90;;;;;;5022681;28;20206;-68
2021/09/30 00:40:52;;;;;;;15.37;7.83;;;12.30;99.90;;;;;;5020972;28;20198;-68
2021/09/30 00:46:05;;;;;;;20.83;8.57;;;12.40;99.90;;;;;;5023192;28;20236;-68
2021/09/30 00:48:48;;;;;;;16.57;8.00;;;12.30;99.90;;;;;;5031922;28;20203;-68
2021/09/30 00:51:23;;;;;;;13.77;8.00;;;12.40;99.90;;;;;;5033323;28;20217;-67
2021/09/30 02:21:00;;;;;;;15.37;8.83;;;12.00;99.90;;;;;;5030391;28;20202;-67
2021/09/30 02:29:23;;;;;;;23.57;9.10;;;12.00;99.90;;;;;;5125363;27;20560;-68
2021/09/30 02:35:02;;;;;;;19.57;8.80;;;12.10;99.90;;;;;;5102792;28;20195;-68
2021/09/30 03:00:00;;;;;;;14.00;7.93;;;11.90;99.90;;;;;;5107664;28;20750;-67
2021/09/30 03:02:29;;;;;;;23.03;9.33;;;11.90;99.90;;;;;;5107925;28;20200;-67
2021/09/30 03:04:56;;;;;;;19.17;7.80;;;11.80;99.90;;;;;;5108686;28;20200;-67
2021/09/30 03:07:25;;;;;;;15.87;9.67;;;11.90;99.90;;;;;;5108740;28;20743;-67
2021/09/30 03:09:54;;;;;;;16.60;8.43;;;11.80;99.90;;;;;;5108031;28;20196;-68
2021/09/30 03:12:27;;;;;;;15.10;8.37;;;11.70;99.90;;;;;;5108569;28;20206;-67
2021/09/30 03:15:04;;;;;;;18.13;8.30;;;11.70;99.90;;;;;;5109206;28;20208;-68
2021/09/30 03:17:44;;;;;;;16.47;9.10;;;11.60;99.90;;;;;;5101274;28;20227;-67
2021/09/30 03:22:58;;;;;;;16.77;8.33;;;11.60;99.90;;;;;;5107934;28;20200;-67
2021/09/30 03:25:26;;;;;;;19.67;8.07;;;11.60;99.90;;;;;;5107983;28;20228;-67
2021/09/30 03:27:55;;;;;;;17.43;8.30;;;11.50;99.90;;;;;;5107636;28;20228;-67
2021/09/30 03:30:23;;;;;;;14.83;8.60;;;11.50;99.90;;;;;;5108247;28;20204;-67
2021/09/30 03:32:53;;;;;;;19.17;9.50;;;11.30;99.90;;;;;;5107581;28;20196;-67
2021/09/30 03:35:20;;;;;;;19.13;8.40;;;11.30;99.90;;;;;;5107775;28;20208;-66
2021/09/30 03:37:47;;;;;;;15.53;9.47;;;11.30;99.90;;;;;;5105928;28;20196;-69
2021/09/30 03:40:14;;;;;;;20.47;9.07;;;11.30;99.90;;;;;;5095504;28;20207;-67
2021/09/30 03:42:41;;;;;;;20.87;9.70;;;11.20;99.90;;;;;;5093966;28;20212;-67
2021/09/30 03:45:09;;;;;;;15.93;8.33;;;11.20;99.90;;;;;;5094076;28;20208;-66
2021/09/30 03:47:36;;;;;;;16.57;8.90;;;11.20;99.90;;;;;;5094110;28;20228;-68
2021/09/30 03:50:08;;;;;;;17.23;8.50;;;11.10;99.90;;;;;;5079990;28;20266;-68
2021/09/30 03:52:45;;;;;;;17.60;7.97;;;11.20;99.90;;;;;;5094410;28;20208;-67
2021/09/30 04:00:36;;;;;;;17.47;8.63;;;11.10;99.90;;;;;;5093905;28;20214;-68
2021/09/30 04:03:05;;;;;;;17.13;8.90;;;11.10;99.90;;;;;;5093768;28;20205;-67
2021/09/30 04:05:33;;;;;;;18.60;9.30;;;11.10;99.90;;;;;;5093356;28;20213;-67
2021/09/30 04:08:00;;;;;;;19.90;9.10;;;11.10;99.90;;;;;;5092850;28;20232;-67
2021/09/30 04:10:27;;;;;;;17.87;8.70;;;11.10;99.90;;;;;;5093898;28;20287;-67
2021/09/30 04:12:54;;;;;;;18.37;9.13;;;11.00;99.90;;;;;;5093985;28;20214;-67
2021/09/30 04:15:21;;;;;;;16.37;8.33;;;11.00;99.90;;;;;;5093510;28;20315;-67
2021/09/30 04:17:48;;;;;;;16.67;9.03;;;11.00;99.90;;;;;;5093773;28;20200;-67
2021/09/30 04:20:17;;;;;;;17.57;9.37;;;11.00;99.90;;;;;;5093499;28;20598;-67
2021/09/30 04:22:45;;;;;;;17.50;8.83;;;11.00;99.90;;;;;;5084440;28;20209;-67
2021/09/30 04:25:12;;;;;;;19.97;9.47;;;10.90;99.90;;;;;;5093156;28;20523;-68
2021/09/30 04:27:39;;;;;;;19.80;8.57;;;11.00;99.90;;;;;;5091314;28;20241;-67
2021/09/30 04:30:08;;;;;;;19.60;9.60;;;10.90;99.90;;;;;;5093391;28;20836;-67
2021/09/30 04:32:34;;;;;;;15.43;8.90;;;10.90;99.90;;;;;;5093500;28;20234;-67
2021/09/30 04:35:01;;;;;;;18.30;9.77;;;10.90;99.90;;;;;;5092905;28;20204;-67
2021/09/30 04:37:28;;;;;;;16.77;9.00;;;10.90;99.90;;;;;;5090235;28;20351;-67
2021/09/30 04:39:57;;;;;;;19.53;9.33;;;10.90;99.90;;;;;;5088538;28;20201;-67
2021/09/30 04:42:23;;;;;;;20.33;9.73;;;11.00;99.90;;;;;;5092975;28;20200;-68
2021/09/30 04:44:50;;;;;;;15.87;8.80;;;10.90;99.90;;;;;;5093187;28;20204;-67
2021/09/30 04:47:17;;;;;;;16.37;8.90;;;10.90;99.90;;;;;;5092027;28;20211;-68
2021/09/30 04:49:44;;;;;;;18.83;9.87;;;11.00;99.90;;;;;;5093294;28;20299;-67
2021/09/30 04:52:11;;;;;;;16.37;8.57;;;11.00;99.90;;;;;;5091616;28;20214;-67
2021/09/30 04:54:38;;;;;;;20.80;9.63;;;11.00;99.90;;;;;;5091425;28;20201;-67
2021/09/30 04:57:07;;;;;;;21.70;9.90;;;11.00;99.90;;;;;;5092307;28;20243;-67
2021/09/30 04:59:34;;;;;;;17.03;9.23;;;11.00;99.90;;;;;;5092866;28;20197;-67
2021/09/30 05:02:01;;;;;;;16.70;9.33;;;11.20;99.90;;;;;;5092151;28;20211;-68
2021/09/30 05:04:27;;;;;;;20.33;9.13;;;11.10;99.90;;;;;;5092302;28;20223;-68
2021/09/30 05:06:55;;;;;;;16.30;9.07;;;11.10;99.90;;;;;;5096044;28;20219;-73
2021/09/30 05:09:23;;;;;;;18.33;9.20;;;11.10;99.90;;;;;;5095121;28;20582;-75
2021/09/30 05:11:53;;;;;;;16.80;8.00;;;11.10;99.90;;;;;;5093084;28;20209;-73
2021/09/30 05:14:21;;;;;;;20.47;9.67;;;11.10;99.90;;;;;;5094535;28;20212;-72
2021/09/30 05:16:49;;;;;;;18.80;9.57;;;11.10;99.90;;;;;;5093384;28;20212;-72
2021/09/30 05:19:16;;;;;;;17.90;9.37;;;11.10;99.90;;;;;;5079378;28;20204;-71
2021/09/30 05:21:43;;;;;;;18.00;9.60;;;11.20;99.90;;;;;;5092841;28;20217;-71
2021/09/30 05:24:10;;;;;;;16.00;9.20;;;11.20;99.90;;;;;;5090604;28;20650;-72
2021/09/30 05:26:38;;;;;;;21.57;9.57;;;11.20;99.90;;;;;;5084835;28;20205;-72
2021/09/30 05:29:06;;;;;;;17.77;9.37;;;11.20;99.90;;;;;;5075355;28;20229;-72
2021/09/30 05:31:37;;;;;;;17.37;8.97;;;11.20;99.90;;;;;;5087558;28;20209;-73
2021/09/30 05:34:04;;;;;;;12.90;8.37;;;11.20;99.90;;;;;;5091516;28;20250;-73
2021/09/30 05:36:31;;;;;;;18.63;9.00;;;11.20;99.90;;;;;;5084513;28;20312;-73
2021/09/30 05:38:57;;;;;;;17.73;9.20;;;11.20;99.90;;;;;;5086973;28;20199;-72
2021/09/30 05:41:25;;;;;;;20.07;9.33;;;11.10;99.90;;;;;;5085196;28;20211;-73
2021/09/30 05:43:54;;;;;;;19.07;8.90;;;11.20;99.90;;;;;;5085262;28;20678;-73
2021/09/30 05:46:33;;;;;;;16.73;9.13;;;11.20;99.90;;;;;;5077481;28;20553;-71
2021/09/30 05:49:01;;;;;;;18.10;9.30;;;11.20;99.90;;;;;;5092616;28;20212;-72
2021/09/30 05:51:28;;;;;;;17.03;8.57;;;11.20;99.90;;;;;;5087638;28;20221;-72
2021/09/30 05:53:55;;;;;;;19.70;10.10;;;11.20;99.90;;;;;;5093771;28;20214;-72
2021/09/30 05:56:22;;;;;;;17.90;8.80;;;11.20;99.90;;;;;;5093874;28;20211;-70
2021/09/30 05:58:49;;;;;;;17.13;9.20;;;11.20;99.90;;;;;;5093173;28;20578;-71
2021/09/30 06:01:34;;;;;;;23.10;10.07;;;11.20;99.90;;;;;;5088362;28;20292;-71
2021/09/30 06:12:26;;;;;;;19.97;9.27;;;11.20;99.90;;;;;;5093081;28;20295;-70
2021/09/30 06:14:53;;;;;;;16.63;9.23;;;11.20;99.90;;;;;;5087680;28;20211;-69
2021/09/30 06:17:20;;;;;;;22.07;10.40;;;11.30;99.90;;;;;;5091847;28;20268;-70
2021/09/30 06:19:49;;;;;;;19.10;10.57;;;11.30;99.90;;;;;;5093180;28;20681;-69
2021/09/30 06:22:15;;;;;;;21.77;9.50;;;11.30;99.90;;;;;;5093701;28;20214;-71
2021/09/30 06:24:43;;;;;;;21.57;11.20;;;11.30;99.90;;;;;;5090535;28;20556;-70
2021/09/30 06:27:10;;;;;;;20.83;9.93;;;11.30;99.90;;;;;;5083200;28;20233;-72
2021/09/30 06:29:37;;;;;;;20.50;9.47;;;11.40;99.90;;;;;;5092125;28;20731;-71
2021/09/30 06:32:04;;;;;;;19.43;10.03;;;11.40;99.90;;;;;;5088801;28;20661;-71
2021/09/30 06:34:31;;;;;;;20.93;9.77;;;11.40;99.90;;;;;;5086178;28;20204;-69
2021/09/30 06:37:00;;;;;;;23.90;11.47;;;11.50;99.90;;;;;;5088321;28;20229;-70
2021/09/30 06:39:26;;;;;;;19.27;10.53;;;11.50;99.90;;;;;;5084764;28;20295;-70
2021/09/30 06:41:53;;;;;;;18.30;10.53;;;11.50;99.90;;;;;;5095540;28;20205;-71
2021/09/30 06:44:20;;;;;;;21.23;10.63;;;11.50;99.90;;;;;;5087081;28;20209;-71
2021/09/30 06:46:47;;;;;;;21.17;11.07;;;11.50;99.90;;;;;;5088755;28;20197;-71
2021/09/30 06:49:14;;;;;;;18.57;11.17;;;11.50;99.90;;;;;;5085317;28;20326;-70
2021/09/30 06:51:41;;;;;;;21.43;11.20;;;11.60;99.90;;;;;;5093376;28;20210;-70
2021/09/30 06:54:09;;;;;;;19.23;11.37;;;11.60;99.90;;;;;;5091674;28;20208;-70
2021/09/30 06:56:36;;;;;;;17.47;10.03;;;11.70;99.90;;;;;;5083904;28;20292;-71
2021/09/30 06:59:05;;;;;;;18.97;10.37;;;11.60;99.90;;;;;;5090043;28;20292;-71
2021/09/30 07:01:33;;;;;;;24.37;11.47;;;11.70;99.90;;;;;;5087845;28;20231;-71
2021/09/30 07:04:00;;;;;;;22.60;12.00;;;11.70;99.90;;;;;;5093202;28;20213;-70
2021/09/30 07:06:27;;;;;;;21.90;11.20;;;11.70;99.90;;;;;;5091766;28;20291;-70
2021/09/30 07:08:54;;;;;;;20.30;11.27;;;11.80;99.90;;;;;;5091847;28;20638;-70
2021/09/30 07:11:22;;;;;;;20.10;10.87;;;11.80;99.90;;;;;;5088888;28;20300;-71
2021/09/30 07:13:49;;;;;;;20.97;10.60;;;11.90;99.90;;;;;;5083647;28;20300;-71
2021/09/30 07:16:16;;;;;;;18.73;10.87;;;11.90;99.90;;;;;;5102250;28;20219;-71
2021/09/30 07:18:43;;;;;;;19.50;11.93;;;11.90;99.90;;;;;;5095911;28;20232;-72
2021/09/30 07:21:10;;;;;;;22.17;10.77;;;12.00;99.90;;;;;;5095577;28;20240;-73
2021/09/30 07:23:37;;;;;;;15.23;11.00;;;12.00;99.90;;;;;;5091276;28;20204;-72
2021/09/30 07:26:07;;;;;;;21.00;10.57;;;12.10;99.90;;;;;;5096872;28;20287;-70
2021/09/30 07:28:36;;;;;;;16.00;10.67;;;12.10;99.90;;;;;;5096337;28;20240;-71
2021/09/30 07:31:03;;;;;;;17.23;10.40;;;12.20;99.90;;;;;;5096377;28;20231;-70
2021/09/30 07:33:30;;;;;;;18.87;10.30;;;12.20;99.90;;;;;;5095667;28;20218;-70
2021/09/30 07:35:57;;;;;;;22.40;10.80;;;12.30;99.90;;;;;;5091387;28;20247;-70
2021/09/30 07:38:25;;;;;;;17.33;10.73;;;12.40;99.90;;;;;;5094185;28;20234;-70
2021/09/30 07:40:52;;;;;;;17.17;10.40;;;12.40;99.90;;;;;;5091097;28;20204;-71
2021/09/30 07:43:19;;;;;;;17.77;10.67;;;12.50;99.90;;;;;;5091875;28;20293;-71
2021/09/30 07:45:49;;;;;;;18.10;11.47;;;12.50;99.90;;;;;;5097557;28;20211;-71
2021/09/30 07:48:16;;;;;;;19.00;11.20;;;12.60;99.90;;;;;;5089180;28;20205;-71
2021/09/30 07:50:43;;;;;;;20.50;10.87;;;12.60;99.90;;;;;;5095086;28;20201;-71
2021/09/30 07:53:10;;;;;;;19.80;10.90;;;12.60;99.90;;;;;;5097217;28;20218;-70
2021/09/30 07:55:37;;;;;;;23.90;11.00;;;12.60;99.90;;;;;;5097495;28;20710;-71
2021/09/30 07:58:08;;;;;;;18.17;11.07;;;12.70;99.90;;;;;;5097255;28;20304;-71
2021/09/30 08:00:36;;;;;;;19.27;11.57;;;12.70;99.90;;;;;;5093716;28;20192;-71
2021/09/30 08:03:05;;;;;;;18.97;11.43;;;12.70;99.90;;;;;;5096993;28;20208;-72
2021/09/30 08:05:34;;;;;;;23.97;11.73;;;12.70;99.90;;;;;;5091726;28;20665;-71
2021/09/30 08:08:02;;;;;;;23.57;12.60;;;12.80;99.90;;;;;;5093036;28;20961;-71
2021/09/30 08:10:29;;;;;;;20.77;12.57;;;12.80;99.90;;;;;;5096978;28;20252;-71
2021/09/30 08:12:56;;;;;;;19.17;10.87;;;12.80;99.90;;;;;;5090205;28;20288;-71
2021/09/30 08:15:26;;;;;;;20.70;11.40;;;12.80;99.90;;;;;;5086144;28;20687;-72
2021/09/30 08:17:53;;;;;;;22.43;12.67;;;12.80;99.90;;;;;;5087063;28;20236;-72
2021/09/30 08:20:22;;;;;;;19.63;12.07;;;12.80;99.90;;;;;;5081168;28;20292;-72
2021/09/30 08:22:49;;;;;;;28.00;14.03;;;12.80;99.90;;;;;;5084234;28;20209;-71
2021/09/30 08:25:17;;;;;;;29.00;13.30;;;12.80;99.90;;;;;;5086446;28;20288;-71
2021/09/30 08:27:43;;;;;;;31.93;12.70;;;12.80;99.90;;;;;;5089195;28;20302;-72
2021/09/30 08:30:11;;;;;;;27.67;12.73;;;12.80;99.90;;;;;;5094306;28;20227;-71
2021/09/30 08:32:38;;;;;;;26.20;12.70;;;12.80;99.90;;;;;;5095953;28;20283;-72
2021/09/30 08:35:07;;;;;;;31.33;13.70;;;12.80;99.90;;;;;;5093791;28;20232;-71
2021/09/30 08:37:36;;;;;;;24.93;13.30;;;12.80;99.90;;;;;;5094077;28;20239;-71
2021/09/30 08:40:05;;;;;;;26.00;13.20;;;12.80;99.90;;;;;;5094789;28;20203;-72
2021/09/30 08:42:32;;;;;;;31.93;14.63;;;12.90;99.90;;;;;;5097215;28;20200;-72
2021/09/30 08:44:58;;;;;;;31.40;15.47;;;12.90;99.90;;;;;;5092424;28;20268;-73
2021/09/30 08:47:25;;;;;;;32.40;15.60;;;12.90;99.90;;;;;;5090544;28;20228;-72
2021/09/30 08:49:52;;;;;;;35.17;15.90;;;12.90;99.90;;;;;;5086241;28;20227;-72
2021/09/30 08:52:19;;;;;;;30.87;14.63;;;13.00;99.90;;;;;;5082580;28;20207;-72
2021/09/30 08:54:47;;;;;;;29.47;15.80;;;13.00;99.90;;;;;;5093252;28;20247;-72
2021/09/30 08:57:15;;;;;;;36.53;16.33;;;13.00;99.90;;;;;;5095387;28;20713;-72
2021/09/30 08:59:42;;;;;;;33.43;15.43;;;13.10;99.90;;;;;;5087193;28;20272;-72
2021/09/30 09:02:11;;;;;;;28.33;16.67;;;13.10;99.90;;;;;;5086761;28;20238;-72
2021/09/30 09:04:52;;;;;;;35.30;17.30;;;13.10;99.90;;;;;;5087465;28;20201;-72
2021/09/30 09:07:24;;;;;;;35.43;17.57;;;13.10;99.90;;;;;;5091199;28;20239;-72
2021/09/30 09:09:53;;;;;;;29.57;17.13;;;13.10;99.90;;;;;;5089437;28;20304;-73
2021/09/30 09:12:20;;;;;;;32.93;16.93;;;13.10;99.90;;;;;;5085960;28;20269;-72
2021/09/30 09:14:48;;;;;;;28.30;18.03;;;13.10;99.90;;;;;;5083555;28;20653;-72
2021/09/30 09:17:16;;;;;;;35.13;19.00;;;13.10;99.90;;;;;;5086044;28;20287;-72
2021/09/30 09:19:46;;;;;;;33.67;17.77;;;13.10;99.90;;;;;;5083798;28;20291;-72
2021/09/30 09:22:16;;;;;;;33.87;19.87;;;13.10;99.90;;;;;;5079825;28;20211;-72
2021/09/30 09:25:07;;;;;;;26.70;17.73;;;13.20;99.90;;;;;;5086927;28;20204;-73
2021/09/30 09:27:46;;;;;;;30.43;17.80;;;13.20;99.90;;;;;;5085881;28;20275;-71
2021/09/30 09:30:27;;;;;;;28.70;17.20;;;13.30;99.90;;;;;;5091892;28;20227;-72
2021/09/30 09:33:06;;;;;;;36.10;18.27;;;13.40;99.90;;;;;;5087667;28;20244;-71
2021/09/30 09:35:51;;;;;;;30.03;18.37;;;13.40;99.90;;;;;;5093876;28;20285;-72
2021/09/30 09:38:20;;;;;;;24.33;17.57;;;13.50;99.90;;;;;;5090964;28;20212;-73
2021/09/30 09:40:52;;;;;;;25.60;17.97;;;13.70;99.90;;;;;;5096909;28;20295;-72
2021/09/30 09:43:36;;;;;;;23.40;17.70;;;13.90;99.90;;;;;;5081883;28;20721;-73
2021/09/30 09:46:05;;;;;;;27.37;17.70;;;14.10;99.90;;;;;;5082943;28;20216;-73
2021/09/30 09:48:33;;;;;;;26.50;15.87;;;14.60;99.90;;;;;;5091016;28;20320;-72
2021/09/30 09:51:02;;;;;;;22.03;15.60;;;15.20;99.90;;;;;;5096404;28;20255;-72
2021/09/30 09:53:32;;;;;;;22.20;14.43;;;16.40;99.90;;;;;;5097139;28;20208;-72
2021/09/30 09:56:18;;;;;;;21.90;14.57;;;18.40;99.90;;;;;;5096032;28;20212;-72
2021/09/30 09:58:56;;;;;;;18.55;12.63;;;20.10;99.90;;;;;;5083195;28;20630;-73
2021/09/30 10:01:25;;;;;;;19.15;13.00;;;20.50;99.90;;;;;;5097560;28;20272;-72
2021/09/30 10:04:01;;;;;;;19.27;13.55;;;20.10;99.90;;;;;;5093968;28;20219;-73
2021/09/30 10:06:30;;;;;;;17.17;13.13;;;19.60;99.90;;;;;;5093794;28;20223;-72
2021/09/30 10:08:58;;;;;;;17.30;13.40;;;19.10;99.90;;;;;;5093262;28;20656;-73
2021/09/30 10:11:27;;;;;;;18.10;13.27;;;18.80;99.90;;;;;;5096774;28;20212;-72
2021/09/30 10:13:56;;;;;;;16.05;12.25;;;18.60;99.90;;;;;;5097543;28;20585;-72
2021/09/30 10:16:26;;;;;;;19.35;12.80;;;18.40;99.90;;;;;;5097089;28;20629;-73
2021/09/30 10:18:54;;;;;;;16.45;12.15;;;18.10;99.90;;;;;;5095599;28;20204;-72
2021/09/30 10:21:21;;;;;;;20.90;13.85;;;18.00;99.90;;;;;;5098811;28;20621;-72
2021/09/30 10:23:55;;;;;;;19.77;14.13;;;17.90;99.90;;;;;;5096146;28;20211;-73
2021/09/30 10:26:34;;;;;;;22.23;13.23;;;17.70;99.90;;;;;;5095859;28;20605;-73
2021/09/30 10:29:02;;;;;;;16.13;13.18;;;17.50;99.90;;;;;;5092955;28;20246;-72
2021/09/30 10:31:32;;;;;;;16.43;12.80;;;17.30;99.90;;;;;;5087701;28;20197;-73
2021/09/30 10:34:01;;;;;;;22.43;14.30;;;17.10;99.90;;;;;;5080252;28;20225;-73
2021/09/30 10:36:40;;;;;;;17.00;13.20;;;16.80;99.90;;;;;;5080951;28;20677;-73
2021/09/30 10:39:25;;;;;;;15.90;14.00;;;16.70;99.90;;;;;;5084386;28;20211;-72
2021/09/30 10:41:56;;;;;;;21.03;14.90;;;16.60;99.90;;;;;;5089977;28;20228;-72
2021/09/30 10:44:25;;;;;;;23.90;14.57;;;16.40;99.90;;;;;;5080581;28;20201;-71
2021/09/30 10:46:57;;;;;;;19.33;14.97;;;16.30;99.90;;;;;;5082316;28;20283;-72
2021/09/30 10:49:40;;;;;;;19.87;14.03;;;16.30;99.90;;;;;;5094478;28;20205;-73
2021/09/30 10:52:26;;;;;;;23.40;14.07;;;16.20;99.90;;;;;;5096649;28;20250;-74
2021/09/30 10:55:17;;;;;;;12.70;10.47;;;16.00;99.90;;;;;;5096516;28;20329;-73
2021/09/30 10:57:47;;;;;;;13.17;9.27;;;15.90;99.90;;;;;;5080977;28;20293;-70
2021/09/30 11:00:48;;;;;;;11.23;8.87;;;15.80;99.90;;;;;;5099978;28;20258;-71
2021/09/30 11:03:25;;;;;;;9.23;8.33;;;15.70;99.90;;;;;;5088727;28;20224;-72
2021/09/30 11:06:25;;;;;;;8.63;6.83;;;15.60;99.90;;;;;;5097253;28;20626;-72
2021/09/30 11:09:11;;;;;;;7.53;6.57;;;15.40;99.90;;;;;;5095765;28;20242;-73
2021/09/30 11:11:41;;;;;;;9.23;7.10;;;15.20;99.90;;;;;;5093406;28;21450;-71
2021/09/30 11:14:25;;;;;;;8.27;6.57;;;15.10;99.90;;;;;;5096174;28;20209;-70
2021/09/30 11:16:54;;;;;;;8.27;6.40;;;15.00;99.90;;;;;;5094045;28;20211;-71
2021/09/30 11:19:42;;;;;;;7.17;5.77;;;15.00;99.90;;;;;;5096020;28;20249;-71
2021/09/30 11:22:11;;;;;;;6.90;6.17;;;14.90;99.90;;;;;;5079352;28;20204;-71
2021/09/30 11:24:51;;;;;;;8.10;5.60;;;14.80;99.90;;;;;;5095487;28;20212;-72
2021/09/30 11:27:27;;;;;;;7.63;6.07;;;14.80;99.90;;;;;;5095689;28;20240;-72
2021/09/30 11:30:23;;;;;;;8.57;6.37;;;14.70;99.90;;;;;;5087242;28;20226;-71
2021/09/30 11:32:55;;;;;;;10.60;7.27;;;14.60;99.90;;;;;;5091853;28;20291;-71
2021/09/30 11:35:22;;;;;;;7.03;6.33;;;14.60;99.90;;;;;;5096030;28;20220;-70
2021/09/30 11:37:49;;;;;;;9.73;7.23;;;14.60;99.90;;;;;;5096792;28;20291;-70
2021/09/30 11:40:19;;;;;;;8.33;7.23;;;14.60;99.90;;;;;;5096459;28;20297;-71
2021/09/30 11:42:49;;;;;;;7.70;6.90;;;14.60;99.90;;;;;;5096439;28;20607;-71
2021/09/30 11:45:21;;;;;;;8.87;7.40;;;14.70;99.90;;;;;;5096992;28;20347;-71
2021/09/30 11:47:49;;;;;;;10.23;7.10;;;14.60;99.90;;;;;;5087710;28;20201;-72
2021/09/30 11:50:19;;;;;;;9.43;7.60;;;14.60;99.90;;;;;;5093144;28;20232;-70
2021/09/30 11:52:57;;;;;;;8.80;6.63;;;14.60;99.90;;;;;;5095083;28;20201;-69
2021/09/30 11:55:27;;;;;;;9.67;7.27;;;14.50;99.90;;;;;;5088988;28;20197;-70
2021/09/30 11:57:56;;;;;;;10.37;7.47;;;14.50;99.90;;;;;;5095064;28;20296;-70
2021/09/30 12:00:26;;;;;;;9.73;7.37;;;14.40;99.90;;;;;;5088483;28;20209;-71
2021/09/30 12:02:54;;;;;;;9.97;8.17;;;14.40;99.90;;;;;;5088565;28;20201;-70
2021/09/30 12:05:24;;;;;;;11.13;8.00;;;14.40;99.90;;;;;;5095721;28;20284;-71
2021/09/30 12:07:52;;;;;;;8.83;7.40;;;14.40;99.90;;;;;;5094152;28;20197;-72
2021/09/30 12:10:19;;;;;;;7.97;7.10;;;14.40;99.90;;;;;;5094090;28;20240;-72
2021/09/30 12:12:46;;;;;;;9.73;7.37;;;14.40;99.90;;;;;;5089533;28;20288;-72
2021/09/30 12:15:13;;;;;;;10.13;7.80;;;14.50;99.90;;;;;;5075063;28;20720;-72
2021/09/30 12:17:44;;;;;;;9.17;8.13;;;14.50;99.90;;;;;;5088521;28;20649;-74
2021/09/30 12:20:13;;;;;;;8.63;7.60;;;14.40;99.90;;;;;;5094620;28;20633;-72
2021/09/30 12:22:43;;;;;;;11.27;8.47;;;14.40;99.90;;;;;;5093859;28;20201;-71
2021/09/30 12:25:12;;;;;;;9.17;7.83;;;14.40;99.90;;;;;;5089059;28;20268;-71
2021/09/30 12:27:43;;;;;;;8.77;7.30;;;14.50;99.90;;;;;;5093537;28;20262;-71
2021/09/30 12:30:12;;;;;;;9.27;7.30;;;14.50;99.90;;;;;;5088827;28;20244;-71
2021/09/30 12:32:43;;;;;;;8.00;7.13;;;14.50;99.90;;;;;;5082828;28;20217;-72
2021/09/30 12:35:17;;;;;;;9.10;7.00;;;14.50;99.90;;;;;;5082541;28;20232;-72
2021/09/30 12:37:46;;;;;;;8.20;7.27;;;14.50;99.90;;;;;;5080089;28;20755;-72
2021/09/30 12:40:16;;;;;;;9.87;7.43;;;14.50;99.90;;;;;;5092748;28;20207;-69
2021/09/30 12:42:57;;;;;;;10.07;7.00;;;14.50;99.90;;;;;;5088542;28;20209;-70
2021/09/30 12:45:24;;;;;;;8.90;6.93;;;14.50;99.90;;;;;;5088232;28;20204;-71
2021/09/30 12:48:01;;;;;;;7.77;6.97;;;14.50;99.90;;;;;;5092786;28;20223;-70
2021/09/30 12:50:40;;;;;;;8.03;7.23;;;14.50;99.90;;;;;;5091959;28;20626;-72
2021/09/30 12:53:07;;;;;;;9.03;7.13;;;14.40;99.90;;;;;;5093122;28;20215;-71
2021/09/30 12:55:35;;;;;;;10.80;7.40;;;14.40;99.90;;;;;;5097028;28;20375;-71
2021/09/30 12:58:02;;;;;;;12.10;8.80;;;14.30;99.90;;;;;;5084576;28;20209;-71
2021/09/30 13:00:34;;;;;;;9.47;7.77;;;14.30;99.90;;;;;;5094803;28;20222;-72
2021/09/30 13:03:15;;;;;;;9.37;8.07;;;14.30;99.90;;;;;;5093983;28;20220;-70
2021/09/30 13:05:50;;;;;;;9.57;7.80;;;14.20;99.90;;;;;;5094318;28;20296;-71
2021/09/30 13:08:41;;;;;;;8.77;7.73;;;14.20;99.90;;;;;;5082165;28;20268;-71
2021/09/30 13:11:28;;;;;;;11.63;8.07;;;14.20;99.90;;;;;;5092768;28;20231;-70
2021/09/30 13:14:14;;;;;;;9.90;8.07;;;14.10;99.90;;;;;;5088209;28;20535;-71
2021/09/30 13:16:41;;;;;;;11.70;8.57;;;14.10;99.90;;;;;;5093582;28;20212;-72
2021/09/30 13:19:09;;;;;;;9.13;8.17;;;14.10;99.90;;;;;;5093612;28;20209;-71
2021/09/30 13:21:57;;;;;;;9.17;8.13;;;14.10;99.90;;;;;;5091624;28;20291;-71
2021/09/30 13:24:24;;;;;;;11.43;8.20;;;14.10;99.90;;;;;;5094194;28;20291;-71
2021/09/30 13:26:51;;;;;;;11.67;9.03;;;14.10;99.90;;;;;;5087321;28;20626;-71
2021/09/30 13:29:18;;;;;;;10.60;9.00;;;14.20;99.90;;;;;;5079643;28;20288;-72
2021/09/30 13:31:45;;;;;;;11.40;9.63;;;14.20;99.90;;;;;;5081536;28;20224;-71
2021/09/30 13:34:13;;;;;;;10.63;9.23;;;14.40;99.90;;;;;;5077834;28;20219;-71
2021/09/30 13:36:40;;;;;;;12.03;9.23;;;15.50;99.90;;;;;;5090725;28;20225;-71
2021/09/30 13:39:07;;;;;;;15.27;9.27;;;14.60;99.90;;;;;;5086768;28;20211;-72
2021/09/30 13:41:34;;;;;;;11.63;9.47;;;14.70;99.90;;;;;;5091579;28;20208;-71
2021/09/30 13:44:01;;;;;;;12.33;9.00;;;14.90;99.90;;;;;;5084926;28;20220;-71
2021/09/30 13:46:28;;;;;;;10.23;9.07;;;14.90;99.90;;;;;;5095125;28;20200;-71
2021/09/30 13:48:55;;;;;;;11.53;9.60;;;15.00;99.90;;;;;;5090205;28;20209;-70
2021/09/30 13:51:23;;;;;;;10.60;9.30;;;15.00;99.90;;;;;;5088003;28;20254;-71
2021/09/30 13:53:50;;;;;;;11.53;10.30;;;15.00;99.90;;;;;;5094078;28;20321;-70
2021/09/30 13:56:17;;;;;;;11.73;10.50;;;15.00;99.90;;;;;;5093088;28;20232;-72
2021/09/30 13:58:44;;;;;;;12.93;10.27;;;15.00;99.90;;;;;;5094059;28;20318;-71
2021/09/30 14:01:11;;;;;;;16.27;10.73;;;15.00;99.90;;;;;;5092994;28;20212;-71
2021/09/30 14:03:38;;;;;;;14.23;11.03;;;15.00;99.90;;;;;;5094034;28;20268;-71
2021/09/30 14:06:05;;;;;;;13.40;10.97;;;15.00;99.90;;;;;;5093446;28;20230;-70
2021/09/30 14:08:34;;;;;;;13.43;11.20;;;15.00;99.90;;;;;;5093135;28;20215;-72
2021/09/30 14:11:11;;;;;;;12.00;10.47;;;15.00;99.90;;;;;;5102253;28;20204;-72
2021/09/30 14:13:39;;;;;;;13.17;10.73;;;15.00;99.90;;;;;;5089175;28;20295;-72
2021/09/30 14:16:06;;;;;;;15.03;10.93;;;15.00;99.90;;;;;;5091669;28;20200;-72
2021/09/30 14:18:33;;;;;;;12.70;10.50;;;15.00;99.90;;;;;;5092319;28;20204;-72
2021/09/30 14:21:00;;;;;;;15.80;11.70;;;15.00;99.90;;;;;;5092276;28;20204;-71
2021/09/30 14:23:27;;;;;;;13.90;10.53;;;15.00;99.90;;;;;;5091461;28;20573;-71
2021/09/30 14:25:58;;;;;;;15.00;10.83;;;15.00;99.90;;;;;;5091343;28;20247;-71
2021/09/30 14:28:26;;;;;;;13.33;10.77;;;15.00;99.90;;;;;;5087243;28;20310;-72
2021/09/30 14:30:55;;;;;;;13.90;10.37;;;15.00;99.90;;;;;;5092678;28;20252;-69
2021/09/30 14:33:23;;;;;;;14.03;10.90;;;15.00;99.90;;;;;;5091824;28;20213;-72
2021/09/30 14:35:51;;;;;;;10.03;7.10;;;15.50;99.90;;;;;;5091593;28;20235;-72
2021/09/30 14:38:18;;;;;;;9.47;6.87;;;14.90;99.90;;;;;;5082127;28;20212;-73
2021/09/30 14:40:49;;;;;;;7.67;5.07;;;14.90;99.90;;;;;;5080430;28;20203;-70
2021/09/30 14:43:17;;;;;;;5.80;3.90;;;14.90;99.90;;;;;;5091825;28;20228;-71
2021/09/30 14:45:45;;;;;;;4.10;3.70;;;14.80;99.90;;;;;;5091061;28;20211;-71
2021/09/30 14:48:12;;;;;;;7.60;3.17;;;14.80;99.90;;;;;;5084442;28;20205;-71
2021/09/30 14:50:39;;;;;;;10.33;4.00;;;14.70;99.90;;;;;;5085833;28;20228;-70
2021/09/30 14:53:07;;;;;;;3.97;3.37;;;14.70;99.90;;;;;;5089905;28;20683;-70
2021/09/30 14:55:34;;;;;;;5.70;3.50;;;14.60;99.90;;;;;;5081137;28;20748;-71
2021/09/30 14:58:01;;;;;;;4.60;3.17;;;14.60;99.90;;;;;;5086158;28;20219;-71
2021/09/30 15:00:29;;;;;;;7.00;3.97;;;14.60;99.90;;;;;;5074616;28;20211;-70
2021/09/30 15:02:56;;;;;;;5.67;3.80;;;14.60;99.90;;;;;;5082773;28;20208;-70
2021/09/30 15:05:23;;;;;;;7.63;3.43;;;14.50;99.90;;;;;;5080464;28;20215;-72
2021/09/30 15:07:50;;;;;;;3.53;2.90;;;14.50;99.90;;;;;;5088908;28;20565;-71
2021/09/30 15:10:17;;;;;;;4.53;3.10;;;15.40;99.90;;;;;;5092529;28;20205;-72
2021/09/30 15:12:44;;;;;;;7.70;3.00;;;14.40;99.90;;;;;;5090616;28;20764;-72
2021/09/30 15:15:13;;;;;;;4.37;3.53;;;14.40;99.90;;;;;;5070194;28;20680;-71
2021/09/30 15:17:54;;;;;;;5.03;3.40;;;14.40;99.90;;;;;;5085025;28;20201;-71
2021/09/30 15:23:06;;;;;;;6.70;3.23;;;14.40;99.90;;;;;;5083927;28;20297;-71
2021/09/30 15:25:36;;;;;;;5.27;3.47;;;14.40;99.90;;;;;;5090833;28;20247;-71
2021/09/30 15:28:04;;;;;;;5.00;3.33;;;14.40;99.90;;;;;;5091758;28;20320;-71